sensor_id;sensor_type;location;lat;lon;timestamp;temperature;humidity
46730;DHT22;32476;50.002;11.854;2023-07-31T00:01:23;11.20;99.90
46730;DHT22;32476;50.002;11.854;2023-07-31T00:03:49;11.20;99.90
46730;DHT22;32476;50.002;11.854;2023-07-31T00:06:17;11.20;99.90
46730;DHT22;32476;50.002;11.854;2023-07-31T00:08:44;11.30;99.90
46730;DHT22;32476;50.002;11.854;2023-07-31T00:11:10;11.30;99.90
46730;DHT22;32476;50.002;11.854;2023-07-31T00:13:38;11.40;99.90
46730;DHT22;32476;50.002;11.854;2023-07-31T00:16:04;11.30;99.90
46730;DHT22;32476;50.002;11.854;2023-07-31T00:18:30;11.30;99.90
46730;DHT22;32476;50.002;11.854;2023-07-31T00:20:57;11.30;99.90
46730;DHT22;32476;50.002;11.854;2023-07-31T00:23:23;11.40;99.90
46730;DHT22;32476;50.002;11.854;2023-07-31T00:25:49;11.30;99.90
46730;DHT22;32476;50.002;11.854;2023-07-31T00:28:16;11.30;99.90
46730;DHT22;32476;50.002;11.854;2023-07-31T00:30:42;11.20;99.90
46730;DHT22;32476;50.002;11.854;2023-07-31T00:33:08;11.20;99.90
46730;DHT22;32476;50.002;11.854;2023-07-31T00:35:36;11.10;99.90
46730;DHT22;32476;50.002;11.854;2023-07-31T00:38:02;11.10;99.90
46730;DHT22;32476;50.002;11.854;2023-07-31T00:40:28;11.00;99.90
46730;DHT22;32476;50.002;11.854;2023-07-31T00:42:55;10.90;99.90
46730;DHT22;32476;50.002;11.854;2023-07-31T00:45:22;11.00;99.90
46730;DHT22;32476;50.002;11.854;2023-07-31T00:47:49;11.00;99.90
46730;DHT22;32476;50.002;11.854;2023-07-31T00:50:16;11.00;99.90
46730;DHT22;32476;50.002;11.854;2023-07-31T00:52:43;11.10;99.90
46730;DHT22;32476;50.002;11.854;2023-07-31T00:55:09;11.10;99.90
46730;DHT22;32476;50.002;11.854;2023-07-31T00:57:37;11.00;99.90
46730;DHT22;32476;50.002;11.854;2023-07-31T01:00:04;11.00;99.90
46730;DHT22;32476;50.002;11.854;2023-07-31T01:02:31;11.10;99.90
46730;DHT22;32476;50.002;11.854;2023-07-31T01:04:59;11.00;99.90
46730;DHT22;32476;50.002;11.854;2023-07-31T01:10:29;11.20;99.90
46730;DHT22;32476;50.002;11.854;2023-07-31T01:12:56;11.20;99.90
46730;DHT22;32476;50.002;11.854;2023-07-31T01:15:25;11.20;99.90
46730;DHT22;32476;50.002;11.854;2023-07-31T01:17:51;11.20;99.90
46730;DHT22;32476;50.002;11.854;2023-07-31T01:20:17;11.30;99.90
46730;DHT22;32476;50.002;11.854;2023-07-31T01:23:09;11.20;99.90
46730;DHT22;32476;50.002;11.854;2023-07-31T01:29:17;11.40;99.90
46730;DHT22;32476;50.002;11.854;2023-07-31T01:31:53;11.40;99.90
46730;DHT22;32476;50.002;11.854;2023-07-31T01:34:22;11.40;99.90
46730;DHT22;32476;50.002;11.854;2023-07-31T01:36:49;11.60;99.90
46730;DHT22;32476;50.002;11.854;2023-07-31T01:39:15;11.60;99.90
46730;DHT22;32476;50.002;11.854;2023-07-31T01:41:42;11.70;99.90
46730;DHT22;32476;50.002;11.854;2023-07-31T01:44:08;11.80;99.90
46730;DHT22;32476;50.002;11.854;2023-07-31T01:46:34;11.80;99.90
46730;DHT22;32476;50.002;11.854;2023-07-31T01:49:02;11.80;99.90
46730;DHT22;32476;50.002;11.854;2023-07-31T01:51:27;11.80;99.90
46730;DHT22;32476;50.002;11.854;2023-07-31T01:53:53;11.80;99.90
46730;DHT22;32476;50.002;11.854;2023-07-31T01:56:21;11.80;99.90
46730;DHT22;32476;50.002;11.854;2023-07-31T01:58:47;11.70;99.90
46730;DHT22;32476;50.002;11.854;2023-07-31T02:01:13;11.80;99.90
46730;DHT22;32476;50.002;11.854;2023-07-31T02:03:40;11.80;99.90
46730;DHT22;32476;50.002;11.854;2023-07-31T02:06:07;11.90;99.90
46730;DHT22;32476;50.002;11.854;2023-07-31T02:08:33;11.90;99.90
46730;DHT22;32476;50.002;11.854;2023-07-31T02:11:01;11.90;99.90
46730;DHT22;32476;50.002;11.854;2023-07-31T02:13:26;12.00;99.90
46730;DHT22;32476;50.002;11.854;2023-07-31T02:15:52;12.00;99.90
46730;DHT22;32476;50.002;11.854;2023-07-31T02:18:20;12.00;99.90
46730;DHT22;32476;50.002;11.854;2023-07-31T02:20:51;12.00;99.90
46730;DHT22;32476;50.002;11.854;2023-07-31T02:23:18;12.00;99.90
46730;DHT22;32476;50.002;11.854;2023-07-31T02:25:46;12.00;99.90
46730;DHT22;32476;50.002;11.854;2023-07-31T02:28:12;11.90;99.90
46730;DHT22;32476;50.002;11.854;2023-07-31T02:30:38;11.90;99.90
46730;DHT22;32476;50.002;11.854;2023-07-31T02:33:06;11.90;99.90
46730;DHT22;32476;50.002;11.854;2023-07-31T02:35:32;12.00;99.90
46730;DHT22;32476;50.002;11.854;2023-07-31T02:37:58;12.00;99.90
46730;DHT22;32476;50.002;11.854;2023-07-31T02:40:25;11.90;99.90
46730;DHT22;32476;50.002;11.854;2023-07-31T02:42:51;11.90;99.90
46730;DHT22;32476;50.002;11.854;2023-07-31T02:45:17;11.90;99.90
46730;DHT22;32476;50.002;11.854;2023-07-31T02:47:44;11.90;99.90
46730;DHT22;32476;50.002;11.854;2023-07-31T02:50:10;11.90;99.90
46730;DHT22;32476;50.002;11.854;2023-07-31T02:52:36;11.80;99.90
46730;DHT22;32476;50.002;11.854;2023-07-31T02:55:04;11.90;99.90
46730;DHT22;32476;50.002;11.854;2023-07-31T02:57:30;11.90;99.90
46730;DHT22;32476;50.002;11.854;2023-07-31T02:59:56;12.00;99.90
46730;DHT22;32476;50.002;11.854;2023-07-31T03:02:24;12.00;99.90
46730;DHT22;32476;50.002;11.854;2023-07-31T03:04:50;11.90;99.90
46730;DHT22;32476;50.002;11.854;2023-07-31T03:07:16;12.00;99.90
46730;DHT22;32476;50.002;11.854;2023-07-31T03:09:43;12.00;99.90
46730;DHT22;32476;50.002;11.854;2023-07-31T03:12:09;12.00;99.90
46730;DHT22;32476;50.002;11.854;2023-07-31T03:14:35;12.00;99.90
46730;DHT22;32476;50.002;11.854;2023-07-31T03:17:03;12.10;99.90
46730;DHT22;32476;50.002;11.854;2023-07-31T03:19:31;12.00;99.90
46730;DHT22;32476;50.002;11.854;2023-07-31T03:21:58;12.10;99.90
46730;DHT22;32476;50.002;11.854;2023-07-31T03:24:26;12.10;99.90
46730;DHT22;32476;50.002;11.854;2023-07-31T03:26:54;12.10;99.90
46730;DHT22;32476;50.002;11.854;2023-07-31T03:29:19;12.20;99.90
46730;DHT22;32476;50.002;11.854;2023-07-31T03:31:47;12.10;99.90
46730;DHT22;32476;50.002;11.854;2023-07-31T03:34:13;12.10;99.90
46730;DHT22;32476;50.002;11.854;2023-07-31T03:36:39;12.10;99.90
46730;DHT22;32476;50.002;11.854;2023-07-31T03:39:06;12.10;99.90
46730;DHT22;32476;50.002;11.854;2023-07-31T03:41:32;12.10;99.90
46730;DHT22;32476;50.002;11.854;2023-07-31T03:43:58;12.10;99.90
46730;DHT22;32476;50.002;11.854;2023-07-31T03:46:25;12.20;99.90
46730;DHT22;32476;50.002;11.854;2023-07-31T03:48:51;12.20;99.90
46730;DHT22;32476;50.002;11.854;2023-07-31T03:51:17;12.10;99.90
46730;DHT22;32476;50.002;11.854;2023-07-31T03:53:45;12.10;99.90
46730;DHT22;32476;50.002;11.854;2023-07-31T03:56:11;12.10;99.90
46730;DHT22;32476;50.002;11.854;2023-07-31T03:58:37;12.10;99.90
46730;DHT22;32476;50.002;11.854;2023-07-31T04:01:05;12.00;99.90
46730;DHT22;32476;50.002;11.854;2023-07-31T04:03:31;12.10;99.90
46730;DHT22;32476;50.002;11.854;2023-07-31T04:05:57;12.10;99.90
46730;DHT22;32476;50.002;11.854;2023-07-31T04:08:25;12.10;99.90
46730;DHT22;32476;50.002;11.854;2023-07-31T04:10:51;12.10;99.90
46730;DHT22;32476;50.002;11.854;2023-07-31T04:13:17;12.10;99.90
46730;DHT22;32476;50.002;11.854;2023-07-31T04:15:51;12.10;99.90
46730;DHT22;32476;50.002;11.854;2023-07-31T04:18:17;12.10;99.90
46730;DHT22;32476;50.002;11.854;2023-07-31T04:20:44;12.10;99.90
46730;DHT22;32476;50.002;11.854;2023-07-31T04:23:10;12.20;99.90
46730;DHT22;32476;50.002;11.854;2023-07-31T04:25:36;12.20;99.90
46730;DHT22;32476;50.002;11.854;2023-07-31T04:28:04;12.20;99.90
46730;DHT22;32476;50.002;11.854;2023-07-31T04:30:30;12.30;99.90
46730;DHT22;32476;50.002;11.854;2023-07-31T04:32:56;12.20;99.90
46730;DHT22;32476;50.002;11.854;2023-07-31T04:35:23;12.20;99.90
46730;DHT22;32476;50.002;11.854;2023-07-31T04:37:50;12.20;99.90
46730;DHT22;32476;50.002;11.854;2023-07-31T04:40:16;12.20;99.90
46730;DHT22;32476;50.002;11.854;2023-07-31T04:42:43;12.30;99.90
46730;DHT22;32476;50.002;11.854;2023-07-31T04:45:09;12.30;99.90
46730;DHT22;32476;50.002;11.854;2023-07-31T04:47:36;12.20;99.90
46730;DHT22;32476;50.002;11.854;2023-07-31T04:50:03;12.20;99.90
46730;DHT22;32476;50.002;11.854;2023-07-31T04:52:29;12.20;99.90
46730;DHT22;32476;50.002;11.854;2023-07-31T04:54:55;12.20;99.90
46730;DHT22;32476;50.002;11.854;2023-07-31T04:57:23;12.20;99.90
46730;DHT22;32476;50.002;11.854;2023-07-31T04:59:49;12.20;99.90
46730;DHT22;32476;50.002;11.854;2023-07-31T05:02:15;12.20;99.90
46730;DHT22;32476;50.002;11.854;2023-07-31T05:04:42;12.20;99.90
46730;DHT22;32476;50.002;11.854;2023-07-31T05:07:08;12.20;99.90
46730;DHT22;32476;50.002;11.854;2023-07-31T05:09:34;12.20;99.90
46730;DHT22;32476;50.002;11.854;2023-07-31T05:12:04;12.20;99.90
46730;DHT22;32476;50.002;11.854;2023-07-31T05:14:30;12.20;99.90
46730;DHT22;32476;50.002;11.854;2023-07-31T05:16:56;12.30;99.90
46730;DHT22;32476;50.002;11.854;2023-07-31T05:19:23;12.30;99.90
46730;DHT22;32476;50.002;11.854;2023-07-31T05:21:49;12.30;99.90
46730;DHT22;32476;50.002;11.854;2023-07-31T05:24:15;12.40;99.90
46730;DHT22;32476;50.002;11.854;2023-07-31T05:26:43;12.40;99.90
46730;DHT22;32476;50.002;11.854;2023-07-31T05:29:08;12.50;99.90
46730;DHT22;32476;50.002;11.854;2023-07-31T05:31:34;12.40;99.90
46730;DHT22;32476;50.002;11.854;2023-07-31T05:34:02;12.40;99.90
46730;DHT22;32476;50.002;11.854;2023-07-31T05:36:28;12.40;99.90
46730;DHT22;32476;50.002;11.854;2023-07-31T05:38:54;12.50;99.90
46730;DHT22;32476;50.002;11.854;2023-07-31T05:41:21;12.50;99.90
46730;DHT22;32476;50.002;11.854;2023-07-31T05:43:47;12.50;99.90
46730;DHT22;32476;50.002;11.854;2023-07-31T05:46:13;12.50;99.90
46730;DHT22;32476;50.002;11.854;2023-07-31T05:48:40;12.60;99.90
46730;DHT22;32476;50.002;11.854;2023-07-31T05:51:07;12.60;99.90
46730;DHT22;32476;50.002;11.854;2023-07-31T05:53:33;12.60;99.90
46730;DHT22;32476;50.002;11.854;2023-07-31T05:56:03;12.60;99.90
46730;DHT22;32476;50.002;11.854;2023-07-31T05:58:29;12.70;99.90
46730;DHT22;32476;50.002;11.854;2023-07-31T06:00:55;12.60;99.90
46730;DHT22;32476;50.002;11.854;2023-07-31T06:03:22;12.60;99.90
46730;DHT22;32476;50.002;11.854;2023-07-31T06:05:48;12.60;99.90
46730;DHT22;32476;50.002;11.854;2023-07-31T06:08:14;12.60;99.90
46730;DHT22;32476;50.002;11.854;2023-07-31T06:10:42;12.70;99.90
46730;DHT22;32476;50.002;11.854;2023-07-31T06:13:08;12.60;99.90
46730;DHT22;32476;50.002;11.854;2023-07-31T06:15:34;12.70;99.90
46730;DHT22;32476;50.002;11.854;2023-07-31T06:18:02;12.80;99.90
46730;DHT22;32476;50.002;11.854;2023-07-31T06:20:28;12.80;99.90
46730;DHT22;32476;50.002;11.854;2023-07-31T06:22:55;12.70;99.90
46730;DHT22;32476;50.002;11.854;2023-07-31T06:25:22;12.80;99.90
46730;DHT22;32476;50.002;11.854;2023-07-31T06:27:48;12.80;99.90
46730;DHT22;32476;50.002;11.854;2023-07-31T06:30:14;12.90;99.90
46730;DHT22;32476;50.002;11.854;2023-07-31T06:32:42;12.90;99.90
46730;DHT22;32476;50.002;11.854;2023-07-31T06:35:08;12.90;99.90
46730;DHT22;32476;50.002;11.854;2023-07-31T06:37:34;12.90;99.90
46730;DHT22;32476;50.002;11.854;2023-07-31T06:40:02;13.00;99.90
46730;DHT22;32476;50.002;11.854;2023-07-31T06:42:30;13.10;99.90
46730;DHT22;32476;50.002;11.854;2023-07-31T06:44:56;13.20;99.90
46730;DHT22;32476;50.002;11.854;2023-07-31T06:47:24;13.30;99.90
46730;DHT22;32476;50.002;11.854;2023-07-31T06:49:49;13.30;99.90
46730;DHT22;32476;50.002;11.854;2023-07-31T06:52:16;13.30;99.90
46730;DHT22;32476;50.002;11.854;2023-07-31T06:54:43;13.40;99.90
46730;DHT22;32476;50.002;11.854;2023-07-31T06:57:09;13.40;99.90
46730;DHT22;32476;50.002;11.854;2023-07-31T06:59:35;13.50;99.90
46730;DHT22;32476;50.002;11.854;2023-07-31T07:02:03;13.60;99.90
46730;DHT22;32476;50.002;11.854;2023-07-31T07:04:29;13.60;99.90
46730;DHT22;32476;50.002;11.854;2023-07-31T07:06:55;13.70;99.90
46730;DHT22;32476;50.002;11.854;2023-07-31T07:09:22;13.70;99.90
46730;DHT22;32476;50.002;11.854;2023-07-31T07:11:48;13.70;99.90
46730;DHT22;32476;50.002;11.854;2023-07-31T07:14:14;13.70;99.90
46730;DHT22;32476;50.002;11.854;2023-07-31T07:16:42;13.70;99.90
46730;DHT22;32476;50.002;11.854;2023-07-31T07:19:07;13.70;99.90
46730;DHT22;32476;50.002;11.854;2023-07-31T07:21:33;13.80;99.90
46730;DHT22;32476;50.002;11.854;2023-07-31T07:24:01;13.90;99.90
46730;DHT22;32476;50.002;11.854;2023-07-31T07:26:27;13.80;99.90
46730;DHT22;32476;50.002;11.854;2023-07-31T07:28:53;13.80;99.90
46730;DHT22;32476;50.002;11.854;2023-07-31T07:31:20;13.80;99.90
46730;DHT22;32476;50.002;11.854;2023-07-31T07:33:46;13.90;99.90
46730;DHT22;32476;50.002;11.854;2023-07-31T07:36:12;14.00;99.90
46730;DHT22;32476;50.002;11.854;2023-07-31T07:38:41;14.00;99.90
46730;DHT22;32476;50.002;11.854;2023-07-31T07:41:07;14.00;99.90
46730;DHT22;32476;50.002;11.854;2023-07-31T07:43:33;14.00;99.90
46730;DHT22;32476;50.002;11.854;2023-07-31T07:46:01;13.90;99.90
46730;DHT22;32476;50.002;11.854;2023-07-31T07:48:27;13.90;99.90
46730;DHT22;32476;50.002;11.854;2023-07-31T07:50:53;13.90;99.90
46730;DHT22;32476;50.002;11.854;2023-07-31T07:53:21;13.90;99.90
46730;DHT22;32476;50.002;11.854;2023-07-31T07:55:46;13.90;99.90
46730;DHT22;32476;50.002;11.854;2023-07-31T07:58:12;13.90;99.90
46730;DHT22;32476;50.002;11.854;2023-07-31T08:00:41;13.90;99.90
46730;DHT22;32476;50.002;11.854;2023-07-31T08:03:07;13.90;99.90
46730;DHT22;32476;50.002;11.854;2023-07-31T08:05:33;13.90;99.90
46730;DHT22;32476;50.002;11.854;2023-07-31T08:08:01;13.90;99.90
46730;DHT22;32476;50.002;11.854;2023-07-31T08:10:27;14.00;99.90
46730;DHT22;32476;50.002;11.854;2023-07-31T08:12:53;14.00;99.90
46730;DHT22;32476;50.002;11.854;2023-07-31T08:15:21;14.00;99.90
46730;DHT22;32476;50.002;11.854;2023-07-31T08:17:47;14.10;99.90
46730;DHT22;32476;50.002;11.854;2023-07-31T08:20:13;14.20;99.90
46730;DHT22;32476;50.002;11.854;2023-07-31T08:22:41;14.30;99.90
46730;DHT22;32476;50.002;11.854;2023-07-31T08:25:07;14.40;99.90
46730;DHT22;32476;50.002;11.854;2023-07-31T08:27:33;14.30;99.90
46730;DHT22;32476;50.002;11.854;2023-07-31T08:30:01;14.40;99.90
46730;DHT22;32476;50.002;11.854;2023-07-31T08:32:27;14.50;99.90
46730;DHT22;32476;50.002;11.854;2023-07-31T08:34:53;14.50;99.90
46730;DHT22;32476;50.002;11.854;2023-07-31T08:37:20;14.70;99.90
46730;DHT22;32476;50.002;11.854;2023-07-31T08:39:46;14.80;99.90
46730;DHT22;32476;50.002;11.854;2023-07-31T08:42:12;15.00;99.90
46730;DHT22;32476;50.002;11.854;2023-07-31T08:44:40;15.10;99.90
46730;DHT22;32476;50.002;11.854;2023-07-31T08:47:06;15.40;99.90
46730;DHT22;32476;50.002;11.854;2023-07-31T08:49:33;15.50;99.90
46730;DHT22;32476;50.002;11.854;2023-07-31T08:52:02;15.50;99.90
46730;DHT22;32476;50.002;11.854;2023-07-31T08:54:29;15.50;99.90
46730;DHT22;32476;50.002;11.854;2023-07-31T08:56:57;15.40;99.90
46730;DHT22;32476;50.002;11.854;2023-07-31T08:59:29;15.60;99.90
46730;DHT22;32476;50.002;11.854;2023-07-31T09:01:59;15.50;99.90
46730;DHT22;32476;50.002;11.854;2023-07-31T09:04:33;15.50;99.90
46730;DHT22;32476;50.002;11.854;2023-07-31T09:07:02;15.50;99.90
46730;DHT22;32476;50.002;11.854;2023-07-31T09:09:31;15.50;99.90
46730;DHT22;32476;50.002;11.854;2023-07-31T09:11:58;15.60;99.90
46730;DHT22;32476;50.002;11.854;2023-07-31T09:14:25;15.70;99.90
46730;DHT22;32476;50.002;11.854;2023-07-31T09:16:53;15.60;99.90
46730;DHT22;32476;50.002;11.854;2023-07-31T09:19:26;15.50;99.90
46730;DHT22;32476;50.002;11.854;2023-07-31T09:21:52;15.60;99.90
46730;DHT22;32476;50.002;11.854;2023-07-31T09:24:29;15.60;99.90
46730;DHT22;32476;50.002;11.854;2023-07-31T09:26:59;15.70;99.90
46730;DHT22;32476;50.002;11.854;2023-07-31T09:29:27;15.70;99.90
46730;DHT22;32476;50.002;11.854;2023-07-31T09:31:56;15.80;99.90
46730;DHT22;32476;50.002;11.854;2023-07-31T09:34:38;15.90;99.90
46730;DHT22;32476;50.002;11.854;2023-07-31T09:37:06;16.00;99.90
46730;DHT22;32476;50.002;11.854;2023-07-31T09:39:46;16.20;99.90
46730;DHT22;32476;50.002;11.854;2023-07-31T09:42:13;16.40;99.90
46730;DHT22;32476;50.002;11.854;2023-07-31T09:44:41;16.60;99.90
46730;DHT22;32476;50.002;11.854;2023-07-31T09:47:22;16.70;99.90
46730;DHT22;32476;50.002;11.854;2023-07-31T09:49:51;16.60;99.90
46730;DHT22;32476;50.002;11.854;2023-07-31T09:52:17;16.70;99.90
46730;DHT22;32476;50.002;11.854;2023-07-31T09:54:43;16.80;99.90
46730;DHT22;32476;50.002;11.854;2023-07-31T09:57:11;16.70;99.90
46730;DHT22;32476;50.002;11.854;2023-07-31T09:59:37;16.90;99.90
46730;DHT22;32476;50.002;11.854;2023-07-31T10:02:04;17.00;99.90
46730;DHT22;32476;50.002;11.854;2023-07-31T10:04:42;17.10;99.90
46730;DHT22;32476;50.002;11.854;2023-07-31T10:07:09;16.90;99.90
46730;DHT22;32476;50.002;11.854;2023-07-31T10:09:36;16.80;99.90
46730;DHT22;32476;50.002;11.854;2023-07-31T10:12:05;16.60;99.90
46730;DHT22;32476;50.002;11.854;2023-07-31T10:14:35;16.40;99.90
46730;DHT22;32476;50.002;11.854;2023-07-31T10:17:05;16.30;99.90
46730;DHT22;32476;50.002;11.854;2023-07-31T10:19:31;16.30;99.90
46730;DHT22;32476;50.002;11.854;2023-07-31T10:21:59;16.30;99.90
46730;DHT22;32476;50.002;11.854;2023-07-31T10:24:27;16.30;99.90
46730;DHT22;32476;50.002;11.854;2023-07-31T10:26:57;16.30;99.90
46730;DHT22;32476;50.002;11.854;2023-07-31T10:29:27;16.30;99.90
46730;DHT22;32476;50.002;11.854;2023-07-31T10:31:57;16.30;99.90
46730;DHT22;32476;50.002;11.854;2023-07-31T10:34:24;16.30;99.90
46730;DHT22;32476;50.002;11.854;2023-07-31T10:40:11;16.20;99.90
46730;DHT22;32476;50.002;11.854;2023-07-31T10:42:54;16.20;99.90
46730;DHT22;32476;50.002;11.854;2023-07-31T10:45:42;16.20;99.90
46730;DHT22;32476;50.002;11.854;2023-07-31T10:48:14;16.20;99.90
46730;DHT22;32476;50.002;11.854;2023-07-31T10:51:01;16.10;99.90
46730;DHT22;32476;50.002;11.854;2023-07-31T10:53:38;16.10;99.90
46730;DHT22;32476;50.002;11.854;2023-07-31T10:56:07;16.10;99.90
46730;DHT22;32476;50.002;11.854;2023-07-31T10:58:34;16.20;99.90
46730;DHT22;32476;50.002;11.854;2023-07-31T11:01:03;16.30;99.90
46730;DHT22;32476;50.002;11.854;2023-07-31T11:03:47;16.40;99.90
46730;DHT22;32476;50.002;11.854;2023-07-31T11:06:16;16.50;99.90
46730;DHT22;32476;50.002;11.854;2023-07-31T11:08:44;16.70;99.90
46730;DHT22;32476;50.002;11.854;2023-07-31T11:11:16;17.00;99.90
46730;DHT22;32476;50.002;11.854;2023-07-31T11:13:46;17.50;99.90
46730;DHT22;32476;50.002;11.854;2023-07-31T11:16:16;17.60;99.90
46730;DHT22;32476;50.002;11.854;2023-07-31T11:18:45;17.70;99.90
46730;DHT22;32476;50.002;11.854;2023-07-31T11:21:17;17.50;99.90
46730;DHT22;32476;50.002;11.854;2023-07-31T11:23:47;17.50;99.90
46730;DHT22;32476;50.002;11.854;2023-07-31T11:26:14;17.60;99.90
46730;DHT22;32476;50.002;11.854;2023-07-31T11:28:41;17.80;99.90
46730;DHT22;32476;50.002;11.854;2023-07-31T11:31:10;17.60;99.90
46730;DHT22;32476;50.002;11.854;2023-07-31T11:33:36;17.80;99.90
46730;DHT22;32476;50.002;11.854;2023-07-31T11:36:03;18.00;99.90
46730;DHT22;32476;50.002;11.854;2023-07-31T11:38:34;18.00;99.90
46730;DHT22;32476;50.002;11.854;2023-07-31T11:41:02;18.10;99.90
46730;DHT22;32476;50.002;11.854;2023-07-31T11:43:31;17.80;99.90
46730;DHT22;32476;50.002;11.854;2023-07-31T11:45:59;17.70;99.90
46730;DHT22;32476;50.002;11.854;2023-07-31T11:48:30;17.70;99.90
46730;DHT22;32476;50.002;11.854;2023-07-31T11:51:05;17.60;99.90
46730;DHT22;32476;50.002;11.854;2023-07-31T11:56:20;17.20;99.90
46730;DHT22;32476;50.002;11.854;2023-07-31T11:58:55;17.10;99.90
46730;DHT22;32476;50.002;11.854;2023-07-31T12:01:25;17.20;99.90
46730;DHT22;32476;50.002;11.854;2023-07-31T12:03:53;17.10;99.90
46730;DHT22;32476;50.002;11.854;2023-07-31T12:06:19;17.10;99.90
46730;DHT22;32476;50.002;11.854;2023-07-31T12:08:49;17.00;99.90
46730;DHT22;32476;50.002;11.854;2023-07-31T12:11:15;17.00;99.90
46730;DHT22;32476;50.002;11.854;2023-07-31T12:13:43;17.20;99.90
46730;DHT22;32476;50.002;11.854;2023-07-31T12:16:10;17.30;99.90
46730;DHT22;32476;50.002;11.854;2023-07-31T12:18:37;17.40;99.90
46730;DHT22;32476;50.002;11.854;2023-07-31T12:21:08;17.50;99.90
46730;DHT22;32476;50.002;11.854;2023-07-31T12:23:38;17.50;99.90
46730;DHT22;32476;50.002;11.854;2023-07-31T12:26:07;17.50;99.90
46730;DHT22;32476;50.002;11.854;2023-07-31T12:28:43;17.70;99.90
46730;DHT22;32476;50.002;11.854;2023-07-31T12:31:15;17.90;99.90
46730;DHT22;32476;50.002;11.854;2023-07-31T12:33:49;18.00;99.90
46730;DHT22;32476;50.002;11.854;2023-07-31T12:36:18;18.30;99.90
46730;DHT22;32476;50.002;11.854;2023-07-31T12:38:51;18.40;99.90
46730;DHT22;32476;50.002;11.854;2023-07-31T12:41:18;18.40;99.90
46730;DHT22;32476;50.002;11.854;2023-07-31T12:43:45;18.30;99.90
46730;DHT22;32476;50.002;11.854;2023-07-31T12:46:13;18.20;99.90
46730;DHT22;32476;50.002;11.854;2023-07-31T12:48:40;18.20;99.90
46730;DHT22;32476;50.002;11.854;2023-07-31T12:51:06;18.10;99.90
46730;DHT22;32476;50.002;11.854;2023-07-31T12:53:34;18.00;99.90
46730;DHT22;32476;50.002;11.854;2023-07-31T12:56:01;18.00;99.90
46730;DHT22;32476;50.002;11.854;2023-07-31T12:58:27;17.90;99.90
46730;DHT22;32476;50.002;11.854;2023-07-31T13:00:55;18.10;99.90
46730;DHT22;32476;50.002;11.854;2023-07-31T13:03:21;18.10;99.90
46730;DHT22;32476;50.002;11.854;2023-07-31T13:05:47;18.10;99.90
46730;DHT22;32476;50.002;11.854;2023-07-31T13:08:14;18.40;99.90
46730;DHT22;32476;50.002;11.854;2023-07-31T13:10:41;18.90;99.90
46730;DHT22;32476;50.002;11.854;2023-07-31T13:13:07;18.80;99.90
46730;DHT22;32476;50.002;11.854;2023-07-31T13:15:35;18.80;99.90
46730;DHT22;32476;50.002;11.854;2023-07-31T13:18:01;18.60;99.90
46730;DHT22;32476;50.002;11.854;2023-07-31T13:20:27;18.60;99.90
46730;DHT22;32476;50.002;11.854;2023-07-31T13:22:54;18.30;99.90
46730;DHT22;32476;50.002;11.854;2023-07-31T13:25:20;18.00;99.90
46730;DHT22;32476;50.002;11.854;2023-07-31T13:27:46;17.70;99.90
46730;DHT22;32476;50.002;11.854;2023-07-31T13:30:13;17.50;99.90
46730;DHT22;32476;50.002;11.854;2023-07-31T13:32:39;17.70;99.90
46730;DHT22;32476;50.002;11.854;2023-07-31T13:35:06;17.70;99.90
46730;DHT22;32476;50.002;11.854;2023-07-31T13:37:34;17.80;99.90
46730;DHT22;32476;50.002;11.854;2023-07-31T13:40:01;17.80;99.90
46730;DHT22;32476;50.002;11.854;2023-07-31T13:42:27;18.00;99.90
46730;DHT22;32476;50.002;11.854;2023-07-31T13:44:56;18.30;99.90
46730;DHT22;32476;50.002;11.854;2023-07-31T13:47:22;18.50;99.90
46730;DHT22;32476;50.002;11.854;2023-07-31T13:49:48;18.50;99.90
46730;DHT22;32476;50.002;11.854;2023-07-31T13:52:15;18.60;99.90
46730;DHT22;32476;50.002;11.854;2023-07-31T13:54:41;18.80;99.90
46730;DHT22;32476;50.002;11.854;2023-07-31T13:57:08;19.00;99.90
46730;DHT22;32476;50.002;11.854;2023-07-31T13:59:36;19.20;99.90
46730;DHT22;32476;50.002;11.854;2023-07-31T14:02:02;19.20;99.90
46730;DHT22;32476;50.002;11.854;2023-07-31T14:04:28;19.30;99.90
46730;DHT22;32476;50.002;11.854;2023-07-31T14:06:56;19.20;99.90
46730;DHT22;32476;50.002;11.854;2023-07-31T14:09:22;19.40;99.90
46730;DHT22;32476;50.002;11.854;2023-07-31T14:11:48;20.00;99.90
46730;DHT22;32476;50.002;11.854;2023-07-31T14:14:16;20.30;99.90
46730;DHT22;32476;50.002;11.854;2023-07-31T14:16:43;20.10;99.90
46730;DHT22;32476;50.002;11.854;2023-07-31T14:19:09;20.00;99.90
46730;DHT22;32476;50.002;11.854;2023-07-31T14:21:36;20.30;99.90
46730;DHT22;32476;50.002;11.854;2023-07-31T14:24:03;20.40;99.90
46730;DHT22;32476;50.002;11.854;2023-07-31T14:26:29;20.10;99.90
46730;DHT22;32476;50.002;11.854;2023-07-31T14:28:56;19.90;99.90
46730;DHT22;32476;50.002;11.854;2023-07-31T14:31:22;20.00;99.90
46730;DHT22;32476;50.002;11.854;2023-07-31T14:33:48;19.50;99.90
46730;DHT22;32476;50.002;11.854;2023-07-31T14:36:16;19.50;99.90
46730;DHT22;32476;50.002;11.854;2023-07-31T14:38:42;19.50;99.90
46730;DHT22;32476;50.002;11.854;2023-07-31T14:41:08;19.50;99.90
46730;DHT22;32476;50.002;11.854;2023-07-31T14:43:35;19.40;99.90
46730;DHT22;32476;50.002;11.854;2023-07-31T14:46:02;19.30;99.90
46730;DHT22;32476;50.002;11.854;2023-07-31T14:48:28;19.20;99.90
46730;DHT22;32476;50.002;11.854;2023-07-31T14:50:56;19.20;99.90
46730;DHT22;32476;50.002;11.854;2023-07-31T14:53:22;19.00;99.90
46730;DHT22;32476;50.002;11.854;2023-07-31T14:55:48;19.00;99.90
46730;DHT22;32476;50.002;11.854;2023-07-31T14:58:15;19.00;99.90
46730;DHT22;32476;50.002;11.854;2023-07-31T15:00:42;19.00;99.90
46730;DHT22;32476;50.002;11.854;2023-07-31T15:03:08;18.90;99.90
46730;DHT22;32476;50.002;11.854;2023-07-31T15:05:36;18.80;99.90
46730;DHT22;32476;50.002;11.854;2023-07-31T15:08:02;18.80;99.90
46730;DHT22;32476;50.002;11.854;2023-07-31T15:10:28;18.60;99.90
46730;DHT22;32476;50.002;11.854;2023-07-31T15:12:55;18.60;99.90
46730;DHT22;32476;50.002;11.854;2023-07-31T15:15:21;18.60;99.90
46730;DHT22;32476;50.002;11.854;2023-07-31T15:17:47;18.50;99.90
46730;DHT22;32476;50.002;11.854;2023-07-31T15:20:15;18.40;99.90
46730;DHT22;32476;50.002;11.854;2023-07-31T15:22:41;18.40;99.90
46730;DHT22;32476;50.002;11.854;2023-07-31T15:25:08;18.20;99.90
46730;DHT22;32476;50.002;11.854;2023-07-31T15:27:36;18.20;99.90
46730;DHT22;32476;50.002;11.854;2023-07-31T15:30:02;18.20;99.90